Time;durP1;ratioP1;P1;durP2;ratioP2;P2;SDS_P1;SDS_P2;PMS_P1;PMS_P2;Temp;Humidity;BMP_temperature;BMP_pressure;BME280_temperature;BME280_humidity;BME280_pressure;Samples;Min_cycle;Max_cycle;Signal;HPM_P1;HPM_P2
2021/06/20 00:01:11;;;;;;;13.63;12.43;;;26.30;66.40;;;;;;5095401;28;20039;-70
2021/06/20 00:03:37;;;;;;;15.40;14.00;;;26.30;66.40;;;;;;5095774;28;20047;-73
2021/06/20 00:06:17;;;;;;;13.60;12.35;;;26.30;67.10;;;;;;5095106;28;20051;-73
2021/06/20 00:08:43;;;;;;;14.52;13.13;;;26.30;66.40;;;;;;5095724;28;20141;-71
2021/06/20 00:11:08;;;;;;;14.02;12.73;;;26.30;66.40;;;;;;5095074;28;20448;-71
2021/06/20 00:13:34;;;;;;;13.93;12.60;;;26.30;66.40;;;;;;5095994;28;20039;-73
2021/06/20 00:16:00;;;;;;;14.45;13.07;;;26.30;66.40;;;;;;5095497;28;20020;-73
2021/06/20 00:18:26;;;;;;;14.55;13.15;;;26.30;66.40;;;;;;5095021;28;20110;-73
2021/06/20 00:20:51;;;;;;;13.73;12.38;;;26.30;66.40;;;;;;5101001;28;20424;-73
2021/06/20 00:23:17;;;;;;;13.60;12.38;;;26.30;66.40;;;;;;5097294;28;20077;-72
2021/06/20 00:25:43;;;;;;;14.07;12.75;;;26.30;66.40;;;;;;5095183;28;20020;-70
2021/06/20 00:28:09;;;;;;;13.48;12.27;;;26.30;66.40;;;;;;5095009;28;20479;-73
2021/06/20 00:30:36;;;;;;;14.38;12.98;;;26.30;66.40;;;;;;5095126;28;20028;-72
2021/06/20 00:33:02;;;;;;;13.70;12.40;;;26.30;66.40;;;;;;5094749;28;20073;-72
2021/06/20 00:35:28;;;;;;;13.80;12.50;;;26.30;66.40;;;;;;5095031;28;20107;-72
2021/06/20 00:37:55;;;;;;;14.27;12.82;;;26.30;66.40;;;;;;5095044;28;20031;-72
2021/06/20 00:40:22;;;;;;;14.55;13.23;;;26.20;66.30;;;;;;5095003;28;20379;-73
2021/06/20 00:42:48;;;;;;;13.25;12.05;;;26.30;66.40;;;;;;5094841;28;20020;-73
2021/06/20 00:45:17;;;;;;;13.43;12.23;;;26.30;66.40;;;;;;5094876;28;20063;-68
2021/06/20 00:47:43;;;;;;;14.88;13.48;;;26.30;66.40;;;;;;5094559;28;20024;-71
2021/06/20 00:50:12;;;;;;;14.90;13.50;;;26.30;66.50;;;;;;5094874;28;20026;-73
2021/06/20 00:52:38;;;;;;;14.43;13.13;;;26.30;66.40;;;;;;5094650;28;20418;-73
2021/06/20 00:55:05;;;;;;;15.15;13.65;;;26.30;66.50;;;;;;5094663;28;20028;-73
2021/06/20 00:57:33;;;;;;;13.38;12.15;;;26.20;66.40;;;;;;5094704;28;20032;-72
2021/06/20 00:59:59;;;;;;;14.25;12.85;;;26.20;66.40;;;;;;5094337;28;20024;-72
2021/06/20 01:02:25;;;;;;;14.70;13.25;;;26.30;66.50;;;;;;5094250;28;20123;-72
2021/06/20 01:04:51;;;;;;;13.82;12.63;;;26.20;66.40;;;;;;5094257;28;20042;-72
2021/06/20 01:07:19;;;;;;;15.27;13.85;;;26.20;66.40;;;;;;5093599;28;20032;-71
2021/06/20 01:09:45;;;;;;;13.65;12.32;;;26.20;66.40;;;;;;5094473;28;20068;-72
2021/06/20 01:12:13;;;;;;;14.70;13.30;;;26.20;66.50;;;;;;5094541;28;20028;-72
2021/06/20 01:14:40;;;;;;;14.00;12.70;;;26.20;66.40;;;;;;5094160;28;20024;-72
2021/06/20 01:17:06;;;;;;;14.55;13.25;;;26.30;66.50;;;;;;5094115;28;20457;-72
2021/06/20 01:19:35;;;;;;;15.15;13.75;;;26.20;66.40;;;;;;5093786;28;20020;-73
2021/06/20 01:22:19;;;;;;;14.65;13.25;;;26.30;66.50;;;;;;5094493;28;20468;-72
2021/06/20 01:24:49;;;;;;;14.27;12.93;;;26.30;66.50;;;;;;5094066;28;20381;-71
2021/06/20 01:27:14;;;;;;;13.32;12.13;;;26.20;66.40;;;;;;5094032;28;20376;-71
2021/06/20 01:29:46;;;;;;;14.88;13.43;;;26.20;66.40;;;;;;5092985;28;20028;-70
2021/06/20 01:32:13;;;;;;;14.57;13.25;;;26.30;66.50;;;;;;5094376;28;20491;-73
2021/06/20 01:34:39;;;;;;;14.05;12.82;;;26.20;66.40;;;;;;5093940;28;20239;-72
2021/06/20 01:37:08;;;;;;;14.95;13.48;;;26.20;66.50;;;;;;5093912;28;20020;-72
2021/06/20 01:39:38;;;;;;;14.95;13.65;;;26.20;66.40;;;;;;5094270;28;20032;-73
2021/06/20 01:42:05;;;;;;;;;;;26.20;66.60;;;;;;5093917;28;20047;-71
2021/06/20 01:44:31;;;;;;;14.43;13.15;;;26.20;66.60;;;;;;5093912;28;19918;-71
2021/06/20 01:46:56;;;;;;;14.20;12.90;;;26.20;66.50;;;;;;5093719;28;20031;-72
2021/06/20 01:49:22;;;;;;;14.75;13.40;;;26.20;66.50;;;;;;5093816;28;20032;-71
2021/06/20 01:51:50;;;;;;;15.05;13.65;;;26.20;66.50;;;;;;5093637;28;20024;-72
2021/06/20 01:54:16;;;;;;;14.30;12.93;;;26.20;66.50;;;;;;5093558;28;20486;-73
2021/06/20 01:56:41;;;;;;;14.82;13.50;;;26.20;66.60;;;;;;5093289;28;20043;-72
2021/06/20 01:59:07;;;;;;;15.23;13.82;;;26.20;66.60;;;;;;5093580;28;20020;-72
2021/06/20 02:01:33;;;;;;;15.65;14.15;;;26.20;66.60;;;;;;5091895;28;20020;-71
2021/06/20 02:03:59;;;;;;;14.95;13.65;;;26.20;66.60;;;;;;5093391;28;20067;-71
2021/06/20 02:06:24;;;;;;;14.77;13.40;;;26.20;66.60;;;;;;5093126;28;20047;-71
2021/06/20 02:08:50;;;;;;;14.93;13.52;;;26.20;66.60;;;;;;5092115;28;20111;-70
2021/06/20 02:11:16;;;;;;;15.95;14.45;;;26.20;66.60;;;;;;5092911;28;20052;-71
2021/06/20 02:13:41;;;;;;;15.10;13.80;;;26.20;66.60;;;;;;5092199;28;20477;-71
2021/06/20 02:16:07;;;;;;;15.23;13.82;;;26.20;66.60;;;;;;5093430;28;20074;-72
2021/06/20 02:18:33;;;;;;;14.85;13.45;;;26.20;66.60;;;;;;5092660;28;20048;-71
2021/06/20 02:20:59;;;;;;;14.93;13.63;;;26.20;66.60;;;;;;5093136;28;20200;-72
2021/06/20 02:23:25;;;;;;;14.27;12.98;;;26.20;66.60;;;;;;5092932;28;20031;-72
2021/06/20 02:25:50;;;;;;;15.45;14.05;;;26.20;66.60;;;;;;5092936;28;20031;-72
2021/06/20 02:28:16;;;;;;;15.27;13.88;;;26.20;66.60;;;;;;5092927;28;20024;-71
2021/06/20 02:30:42;;;;;;;13.90;12.70;;;26.20;66.60;;;;;;5092887;28;20039;-72
2021/06/20 02:33:08;;;;;;;15.05;13.65;;;26.20;66.70;;;;;;5091584;28;20024;-72
2021/06/20 02:35:34;;;;;;;15.95;14.35;;;26.20;66.60;;;;;;5092913;28;20024;-72
2021/06/20 02:38:00;;;;;;;14.77;13.40;;;26.20;66.60;;;;;;5095979;28;20322;-73
2021/06/20 02:40:25;;;;;;;15.30;13.90;;;26.20;66.70;;;;;;5094732;28;20024;-72
2021/06/20 02:42:51;;;;;;;15.15;13.85;;;26.20;66.70;;;;;;5092902;28;20051;-72
2021/06/20 02:45:21;;;;;;;16.10;14.50;;;26.20;66.70;;;;;;5092627;28;20487;-72
2021/06/20 02:47:47;;;;;;;15.80;14.20;;;26.20;66.70;;;;;;5092434;28;20024;-72
2021/06/20 02:50:15;;;;;;;15.13;13.75;;;26.20;66.70;;;;;;5092760;28;20140;-72
2021/06/20 02:52:43;;;;;;;15.23;13.82;;;26.20;66.70;;;;;;5092390;28;20020;-71
2021/06/20 02:55:09;;;;;;;15.40;13.95;;;26.20;66.70;;;;;;5092979;28;20103;-73
2021/06/20 02:57:36;;;;;;;15.18;13.82;;;26.20;66.70;;;;;;5092611;28;20055;-72
2021/06/20 03:00:03;;;;;;;14.90;13.50;;;26.20;66.70;;;;;;5092689;28;20024;-72
2021/06/20 03:02:30;;;;;;;16.00;14.50;;;26.20;66.70;;;;;;5092635;28;20078;-72
2021/06/20 03:04:56;;;;;;;15.32;13.93;;;26.20;66.70;;;;;;5092207;28;20114;-71
2021/06/20 03:07:22;;;;;;;16.33;14.85;;;26.20;66.70;;;;;;5092333;28;20103;-72
2021/06/20 03:09:49;;;;;;;15.43;14.02;;;26.20;66.70;;;;;;5092244;28;20182;-72
2021/06/20 03:12:15;;;;;;;15.70;14.30;;;26.20;66.70;;;;;;5092576;28;20043;-72
2021/06/20 03:14:42;;;;;;;14.90;13.60;;;26.20;66.70;;;;;;5092654;28;20038;-72
2021/06/20 03:17:08;;;;;;;15.55;13.95;;;26.20;66.70;;;;;;5092435;28;20024;-72
2021/06/20 03:19:35;;;;;;;15.80;14.10;;;26.20;66.70;;;;;;5091866;28;20149;-71
2021/06/20 03:22:02;;;;;;;15.38;13.95;;;26.20;66.80;;;;;;5092279;28;20028;-71
2021/06/20 03:24:29;;;;;;;14.75;13.30;;;26.20;66.70;;;;;;5092158;28;20036;-71
2021/06/20 03:26:56;;;;;;;16.83;15.35;;;26.20;66.80;;;;;;5091001;28;20024;-67
2021/06/20 03:29:22;;;;;;;16.17;14.70;;;26.20;66.80;;;;;;5092187;28;20488;-72
2021/06/20 03:31:49;;;;;;;16.08;14.57;;;26.20;66.90;;;;;;5095412;28;20115;-74
2021/06/20 03:34:14;;;;;;;14.95;13.57;;;26.20;66.80;;;;;;5096212;28;20457;-73
2021/06/20 03:36:40;;;;;;;17.02;15.02;;;26.20;66.90;;;;;;5095995;28;20078;-73
2021/06/20 03:39:07;;;;;;;16.08;14.60;;;26.20;66.80;;;;;;5096268;28;20085;-74
2021/06/20 03:41:32;;;;;;;15.57;14.18;;;26.20;66.80;;;;;;5096321;28;20028;-73
2021/06/20 03:43:58;;;;;;;15.43;14.02;;;26.20;67.60;;;;;;5095899;28;20100;-74
2021/06/20 03:46:24;;;;;;;16.00;14.60;;;26.20;66.90;;;;;;5096251;28;20493;-74
2021/06/20 03:48:49;;;;;;;16.88;15.27;;;26.20;66.90;;;;;;5095616;28;20419;-73
2021/06/20 03:51:15;;;;;;;15.63;14.07;;;26.20;66.80;;;;;;5094460;28;20468;-75
2021/06/20 03:53:44;;;;;;;17.02;15.35;;;26.20;66.90;;;;;;5095921;28;20070;-74
2021/06/20 03:56:10;;;;;;;16.23;14.68;;;26.20;66.90;;;;;;5094572;28;20391;-72
2021/06/20 03:58:36;;;;;;;14.98;13.57;;;26.20;66.90;;;;;;5094401;28;20380;-74
2021/06/20 04:01:03;;;;;;;15.70;14.23;;;26.20;66.90;;;;;;5095673;28;20028;-75
2021/06/20 04:03:29;;;;;;;16.10;14.60;;;26.20;66.90;;;;;;5095465;28;20024;-72
2021/06/20 04:05:54;;;;;;;16.52;14.80;;;26.20;66.90;;;;;;5095502;28;20051;-74
2021/06/20 04:08:20;;;;;;;16.05;14.57;;;26.20;66.90;;;;;;5095518;28;20035;-75
2021/06/20 04:10:46;;;;;;;15.82;14.32;;;26.20;67.00;;;;;;5094099;28;20056;-74
2021/06/20 04:13:11;;;;;;;15.88;14.43;;;26.20;66.90;;;;;;5095646;28;20028;-75
2021/06/20 04:15:37;;;;;;;16.00;14.50;;;26.20;67.00;;;;;;5093881;28;20174;-74
2021/06/20 04:18:03;;;;;;;16.10;14.60;;;26.20;66.90;;;;;;5095520;28;20061;-75
2021/06/20 04:20:29;;;;;;;16.17;14.75;;;26.20;66.90;;;;;;5095114;28;20028;-73
2021/06/20 04:22:54;;;;;;;15.70;14.23;;;26.20;67.00;;;;;;5095568;28;20051;-74
2021/06/20 04:25:20;;;;;;;15.55;14.15;;;26.20;67.00;;;;;;5093785;28;20032;-75
2021/06/20 04:27:48;;;;;;;15.60;14.20;;;26.20;67.00;;;;;;5095264;28;20024;-74
2021/06/20 04:30:17;;;;;;;15.40;13.98;;;26.10;66.90;;;;;;5093624;28;20118;-75
2021/06/20 04:32:44;;;;;;;15.25;13.85;;;26.20;67.10;;;;;;5095008;28;20028;-74
2021/06/20 04:35:11;;;;;;;16.33;14.82;;;26.10;66.90;;;;;;5094783;28;20515;-73
2021/06/20 04:37:38;;;;;;;15.45;14.05;;;26.20;67.00;;;;;;5095120;28;20353;-72
2021/06/20 04:40:05;;;;;;;15.93;14.43;;;26.20;67.00;;;;;;5094993;28;20024;-72
2021/06/20 04:42:38;;;;;;;16.05;14.55;;;26.20;67.10;;;;;;5094920;28;20110;-70
2021/06/20 04:45:05;;;;;;;17.17;15.57;;;26.10;67.00;;;;;;5093555;28;20040;-73
2021/06/20 04:47:31;;;;;;;15.77;14.38;;;26.20;67.10;;;;;;5094577;28;20024;-68
2021/06/20 04:49:58;;;;;;;17.23;15.55;;;26.10;67.00;;;;;;5094719;28;20028;-74
2021/06/20 04:52:24;;;;;;;15.85;14.45;;;26.10;67.00;;;;;;5094906;28;20130;-74
2021/06/20 04:54:51;;;;;;;16.38;14.88;;;26.20;67.10;;;;;;5097345;28;20048;-74
2021/06/20 04:57:25;;;;;;;16.23;14.73;;;26.10;67.00;;;;;;5095702;28;20028;-73
2021/06/20 04:59:52;;;;;;;16.40;14.88;;;26.10;67.00;;;;;;5094682;28;20032;-74
2021/06/20 05:02:19;;;;;;;15.80;14.38;;;26.20;67.10;;;;;;5094344;28;20020;-74
2021/06/20 05:04:44;;;;;;;15.77;14.30;;;26.10;67.00;;;;;;5094463;28;20036;-73
2021/06/20 05:07:10;;;;;;;16.20;14.40;;;26.20;67.10;;;;;;5094580;28;20162;-73
2021/06/20 05:09:40;;;;;;;16.70;15.20;;;26.10;67.00;;;;;;5094293;28;20393;-73
2021/06/20 05:12:07;;;;;;;15.73;14.27;;;26.20;67.10;;;;;;5094136;28;20027;-73
2021/06/20 05:14:42;;;;;;;17.30;15.60;;;26.20;67.10;;;;;;5094006;28;20036;-68
2021/06/20 05:17:09;;;;;;;16.85;15.35;;;26.10;67.00;;;;;;5094235;28;20020;-73
2021/06/20 05:19:35;;;;;;;16.38;14.82;;;26.10;67.00;;;;;;5094296;28;20024;-71
2021/06/20 05:22:00;;;;;;;15.95;14.35;;;26.10;67.00;;;;;;5094193;28;20047;-74
2021/06/20 05:24:26;;;;;;;15.93;14.43;;;26.10;67.00;;;;;;5093890;28;20094;-73
2021/06/20 05:26:52;;;;;;;16.83;15.23;;;26.10;67.00;;;;;;5093915;28;20029;-74
2021/06/20 05:29:18;;;;;;;16.27;14.80;;;26.10;67.00;;;;;;5093828;28;20028;-74
2021/06/20 05:31:43;;;;;;;17.58;15.93;;;26.10;67.10;;;;;;5093974;28;20028;-73
2021/06/20 05:34:09;;;;;;;16.42;14.82;;;26.10;67.10;;;;;;5094014;28;20036;-73
2021/06/20 05:36:35;;;;;;;16.25;14.68;;;26.10;67.10;;;;;;5093886;28;20353;-71
2021/06/20 05:39:00;;;;;;;16.63;14.98;;;26.10;67.20;;;;;;5093887;28;20051;-74
2021/06/20 05:41:26;;;;;;;15.07;13.77;;;26.10;67.10;;;;;;5093689;28;20376;-73
2021/06/20 05:43:53;;;;;;;15.40;14.00;;;26.10;67.00;;;;;;5093499;28;20047;-73
2021/06/20 05:46:20;;;;;;;16.38;14.88;;;26.10;67.10;;;;;;5093618;28;20449;-73
2021/06/20 05:48:46;;;;;;;16.45;14.95;;;26.10;67.10;;;;;;5093600;28;20024;-73
2021/06/20 05:51:11;;;;;;;15.27;13.88;;;26.10;67.10;;;;;;5093469;28;20028;-73
2021/06/20 05:53:37;;;;;;;15.68;14.27;;;26.10;67.20;;;;;;5093163;28;20031;-73
2021/06/20 05:56:03;;;;;;;16.27;14.77;;;26.10;67.30;;;;;;5093652;28;20478;-74
2021/06/20 05:58:29;;;;;;;15.25;13.85;;;26.10;67.20;;;;;;5091880;28;20062;-73
2021/06/20 06:00:54;;;;;;;16.23;14.75;;;26.10;67.20;;;;;;5093477;28;20031;-73
2021/06/20 06:03:20;;;;;;;16.80;15.27;;;26.10;67.10;;;;;;5093268;28;20034;-74
2021/06/20 06:05:46;;;;;;;16.50;14.95;;;26.10;67.10;;;;;;5093237;28;20081;-73
2021/06/20 06:08:12;;;;;;;16.85;15.38;;;26.10;67.20;;;;;;5093113;28;20082;-73
2021/06/20 06:10:38;;;;;;;15.40;14.00;;;26.10;67.20;;;;;;5093405;28;20044;-72
2021/06/20 06:13:04;;;;;;;16.52;15.02;;;26.10;67.20;;;;;;5092894;28;20081;-73
2021/06/20 06:15:31;;;;;;;16.10;14.68;;;26.10;67.30;;;;;;5092921;28;20032;-74
2021/06/20 06:17:58;;;;;;;16.85;15.15;;;26.10;67.30;;;;;;5093080;28;20043;-73
2021/06/20 06:20:23;;;;;;;14.70;13.38;;;26.10;67.30;;;;;;5093122;28;20024;-74
2021/06/20 06:22:49;;;;;;;16.90;15.30;;;26.10;67.30;;;;;;5092818;28;20036;-73
2021/06/20 06:25:16;;;;;;;16.08;14.57;;;26.10;67.30;;;;;;5092747;28;20036;-73
2021/06/20 06:27:42;;;;;;;15.27;13.88;;;26.10;67.30;;;;;;5092417;28;20035;-73
2021/06/20 06:30:09;;;;;;;17.20;15.60;;;26.10;67.30;;;;;;5093074;28;20123;-69
2021/06/20 06:32:36;;;;;;;17.27;15.68;;;26.00;67.20;;;;;;5092757;28;20024;-74
2021/06/20 06:35:02;;;;;;;15.35;13.95;;;26.10;67.30;;;;;;5092857;28;20464;-74
2021/06/20 06:37:28;;;;;;;17.30;15.70;;;26.10;67.30;;;;;;5092662;28;20028;-73
2021/06/20 06:39:53;;;;;;;16.75;15.15;;;26.10;67.30;;;;;;5092800;28;20032;-73
2021/06/20 06:42:19;;;;;;;16.90;15.40;;;26.10;67.20;;;;;;5092531;28;20529;-73
2021/06/20 06:44:44;;;;;;;17.73;15.90;;;26.00;67.20;;;;;;5092949;28;20112;-73
2021/06/20 06:47:10;;;;;;;16.10;14.57;;;26.10;67.30;;;;;;5092926;28;20476;-72
2021/06/20 06:49:36;;;;;;;16.55;14.95;;;26.10;67.30;;;;;;5091247;28;20043;-73
2021/06/20 06:52:02;;;;;;;16.65;15.02;;;26.10;67.30;;;;;;5092532;28;20031;-73
2021/06/20 06:54:28;;;;;;;16.67;15.07;;;26.10;67.30;;;;;;5092526;28;20031;-73
2021/06/20 06:56:53;;;;;;;16.25;14.75;;;26.10;67.40;;;;;;5092373;28;20426;-73
2021/06/20 06:59:19;;;;;;;16.88;15.27;;;26.10;67.30;;;;;;5092701;28;20031;-74
2021/06/20 07:01:45;;;;;;;16.00;14.50;;;26.10;67.30;;;;;;5091380;28;20028;-74
2021/06/20 07:04:11;;;;;;;16.50;14.98;;;26.00;67.20;;;;;;5092361;28;20040;-70
2021/06/20 07:06:36;;;;;;;15.65;14.15;;;26.10;67.30;;;;;;5096080;28;20028;-74
2021/06/20 07:09:03;;;;;;;18.02;16.35;;;26.10;67.30;;;;;;5096877;28;20027;-74
2021/06/20 07:11:29;;;;;;;15.15;13.75;;;26.00;67.30;;;;;;5099353;28;20051;-74
2021/06/20 07:13:54;;;;;;;15.48;14.07;;;26.00;67.30;;;;;;5099022;28;20391;-74
2021/06/20 07:16:20;;;;;;;15.80;14.30;;;26.00;67.30;;;;;;5096890;28;20112;-73
2021/06/20 07:18:46;;;;;;;17.08;15.48;;;26.00;67.30;;;;;;5096333;28;20480;-73
2021/06/20 07:21:11;;;;;;;17.02;15.52;;;26.10;67.40;;;;;;5096694;28;20028;-74
2021/06/20 07:23:37;;;;;;;16.10;14.40;;;26.00;67.30;;;;;;5096462;28;20036;-73
2021/06/20 07:26:03;;;;;;;16.30;14.82;;;26.00;67.30;;;;;;5096292;28;20026;-73
2021/06/20 07:28:28;;;;;;;16.15;14.38;;;26.00;67.30;;;;;;5096905;28;20024;-74
2021/06/20 07:30:54;;;;;;;17.38;15.75;;;26.00;67.40;;;;;;5096551;28;20112;-73
2021/06/20 07:33:22;;;;;;;16.00;14.48;;;26.00;67.30;;;;;;5096229;28;20039;-73
2021/06/20 07:35:57;;;;;;;16.40;14.90;;;26.00;67.20;;;;;;5096403;28;20115;-73
2021/06/20 07:38:23;;;;;;;16.05;14.45;;;26.00;67.30;;;;;;5096088;28;20464;-72
2021/06/20 07:40:49;;;;;;;15.68;14.27;;;26.00;67.30;;;;;;5096034;28;20024;-73
2021/06/20 07:43:14;;;;;;;16.90;15.23;;;26.00;67.30;;;;;;5096651;28;20047;-72
2021/06/20 07:45:41;;;;;;;16.10;14.60;;;26.00;67.30;;;;;;5096356;28;20040;-74
2021/06/20 07:48:07;;;;;;;15.27;13.85;;;26.00;67.30;;;;;;5095912;28;20028;-74
2021/06/20 07:50:34;;;;;;;15.18;13.70;;;26.00;67.30;;;;;;5095998;28;20024;-73
2021/06/20 07:53:00;;;;;;;16.80;15.25;;;26.10;67.50;;;;;;5096083;28;20483;-72
2021/06/20 07:55:25;;;;;;;15.85;14.35;;;26.00;67.40;;;;;;5095972;28;20039;-72
2021/06/20 07:57:51;;;;;;;16.42;14.93;;;26.00;67.40;;;;;;5095952;28;20024;-74
2021/06/20 08:00:18;;;;;;;15.98;14.48;;;26.00;67.40;;;;;;5095868;28;20020;-72
2021/06/20 08:02:43;;;;;;;15.88;14.35;;;26.00;67.40;;;;;;5095915;28;20054;-73
2021/06/20 08:05:10;;;;;;;16.75;15.15;;;26.00;67.50;;;;;;5095423;28;20088;-73
2021/06/20 08:07:35;;;;;;;16.02;14.52;;;26.00;67.50;;;;;;5095548;28;20501;-73
2021/06/20 08:10:02;;;;;;;16.85;15.25;;;26.00;67.40;;;;;;5095496;28;20052;-74
2021/06/20 08:12:27;;;;;;;17.35;15.75;;;26.00;67.40;;;;;;5095815;28;20020;-75
2021/06/20 08:14:54;;;;;;;16.90;15.27;;;26.00;67.40;;;;;;5095299;28;20387;-75
2021/06/20 08:17:20;;;;;;;16.40;14.90;;;26.00;67.40;;;;;;5095134;28;20035;-71
2021/06/20 08:19:46;;;;;;;15.80;14.30;;;26.00;67.40;;;;;;5095067;28;20024;-73
2021/06/20 08:22:12;;;;;;;17.83;16.13;;;26.00;67.40;;;;;;5095443;28;20028;-72
2021/06/20 08:24:39;;;;;;;15.27;13.88;;;26.00;67.50;;;;;;5095084;28;20071;-72
2021/06/20 08:27:05;;;;;;;16.33;14.85;;;26.00;67.50;;;;;;5095449;28;20055;-73
2021/06/20 08:29:31;;;;;;;17.83;16.10;;;26.00;67.60;;;;;;5095327;28;20120;-73
2021/06/20 08:31:57;;;;;;;16.25;14.77;;;26.00;67.40;;;;;;5094146;28;20122;-73
2021/06/20 08:34:23;;;;;;;16.02;14.52;;;26.00;67.40;;;;;;5095123;28;20032;-72
2021/06/20 08:36:49;;;;;;;16.58;15.02;;;26.00;67.40;;;;;;5095085;28;20384;-72
2021/06/20 08:39:15;;;;;;;16.88;15.18;;;26.00;67.40;;;;;;5095168;28;20067;-73
2021/06/20 08:41:42;;;;;;;16.25;14.70;;;26.00;67.40;;;;;;5095127;28;20056;-73
2021/06/20 08:44:25;;;;;;;16.20;14.80;;;26.00;67.50;;;;;;5095046;28;20036;-74
2021/06/20 08:46:51;;;;;;;16.52;14.93;;;26.00;67.40;;;;;;5094901;28;20036;-73
2021/06/20 08:49:17;;;;;;;17.33;15.63;;;26.00;67.40;;;;;;5094559;28;20027;-72
2021/06/20 08:51:47;;;;;;;16.52;14.95;;;26.00;67.40;;;;;;5093441;28;20024;-73
2021/06/20 08:54:13;;;;;;;16.27;14.77;;;26.00;67.40;;;;;;5094938;28;20020;-73
2021/06/20 08:56:39;;;;;;;17.67;15.13;;;26.00;67.40;;;;;;5094749;28;20028;-73
2021/06/20 08:59:05;;;;;;;16.10;14.60;;;26.00;67.40;;;;;;5094586;28;20381;-74
2021/06/20 09:01:33;;;;;;;17.30;15.63;;;26.00;67.40;;;;;;5093424;28;20028;-73
2021/06/20 09:03:59;;;;;;;16.77;15.27;;;26.00;67.50;;;;;;5094281;28;20076;-74
2021/06/20 09:06:25;;;;;;;17.15;15.05;;;26.00;67.50;;;;;;5094291;28;20039;-73
2021/06/20 09:08:57;;;;;;;16.92;15.35;;;26.00;67.40;;;;;;5094615;28;20024;-72
2021/06/20 09:11:28;;;;;;;15.57;14.07;;;26.00;67.40;;;;;;5094002;28;20404;-73
2021/06/20 09:14:04;;;;;;;16.98;15.48;;;26.00;67.50;;;;;;5094499;28;20036;-74
2021/06/20 09:16:30;;;;;;;15.70;14.30;;;26.00;67.50;;;;;;5094095;28;20032;-73
2021/06/20 09:18:56;;;;;;;16.35;14.75;;;26.00;67.50;;;;;;5094273;28;20464;-74
2021/06/20 09:21:26;;;;;;;16.95;15.18;;;26.00;67.40;;;;;;5094312;28;20108;-73
2021/06/20 09:23:53;;;;;;;16.70;15.20;;;26.00;67.40;;;;;;5094266;28;20047;-72
2021/06/20 09:26:36;;;;;;;16.35;14.75;;;26.00;67.50;;;;;;5094155;28;20028;-74
2021/06/20 09:29:02;;;;;;;16.98;15.38;;;26.00;67.40;;;;;;5098905;28;20103;-73
2021/06/20 09:31:49;;;;;;;15.90;14.50;;;26.00;67.50;;;;;;5094872;28;20026;-73
2021/06/20 09:34:15;;;;;;;15.32;13.95;;;26.00;67.50;;;;;;5092800;28;20039;-74
2021/06/20 09:36:41;;;;;;;15.57;14.13;;;26.00;67.40;;;;;;5093954;28;20028;-73
2021/06/20 09:39:23;;;;;;;16.38;14.88;;;26.00;67.50;;;;;;5093920;28;20032;-74
2021/06/20 09:42:10;;;;;;;16.35;14.85;;;26.00;67.50;;;;;;5094138;28;20032;-74
2021/06/20 09:44:44;;;;;;;16.27;14.88;;;26.00;67.50;;;;;;5093956;28;20028;-74
2021/06/20 09:47:13;;;;;;;15.35;13.95;;;26.00;67.60;;;;;;5093936;28;20028;-74
2021/06/20 09:49:40;;;;;;;16.40;14.65;;;25.90;67.50;;;;;;5093440;28;20431;-73
2021/06/20 09:52:07;;;;;;;15.63;14.20;;;26.00;67.50;;;;;;5093418;28;20093;-73
2021/06/20 09:54:38;;;;;;;16.33;14.85;;;25.90;67.40;;;;;;5093789;28;20024;-73
2021/06/20 09:57:14;;;;;;;16.30;14.63;;;25.90;67.40;;;;;;5093578;28;20028;-74
2021/06/20 09:59:42;;;;;;;15.68;14.27;;;25.90;67.40;;;;;;5092329;28;20020;-73
2021/06/20 10:02:10;;;;;;;15.50;14.10;;;26.00;67.50;;;;;;5093358;28;20043;-73
2021/06/20 10:04:37;;;;;;;15.27;13.77;;;25.90;67.60;;;;;;5093117;28;20128;-73
2021/06/20 10:07:07;;;;;;;15.77;14.30;;;25.90;67.50;;;;;;5093476;28;20024;-73
2021/06/20 10:09:35;;;;;;;16.33;14.82;;;25.90;68.20;;;;;;5093325;28;20044;-73
2021/06/20 10:12:03;;;;;;;15.63;14.23;;;25.90;67.50;;;;;;5093257;28;20035;-73
2021/06/20 10:14:29;;;;;;;15.63;14.13;;;25.90;67.60;;;;;;5093194;28;20388;-73
2021/06/20 10:17:08;;;;;;;15.30;13.90;;;25.90;67.60;;;;;;5092968;28;20056;-72
2021/06/20 10:19:40;;;;;;;15.30;13.90;;;25.90;67.60;;;;;;5093150;28;20031;-73
2021/06/20 10:22:07;;;;;;;15.30;13.90;;;25.90;68.00;;;;;;5093162;28;20032;-74
2021/06/20 10:24:53;;;;;;;15.63;14.23;;;25.90;67.60;;;;;;5093041;28;20426;-73
2021/06/20 10:27:34;;;;;;;15.45;14.05;;;25.90;67.60;;;;;;5092858;28;20528;-71
2021/06/20 10:30:04;;;;;;;15.98;14.48;;;25.90;67.60;;;;;;5093263;28;20067;-74
2021/06/20 10:32:42;;;;;;;14.88;13.48;;;25.90;67.60;;;;;;5092988;28;20032;-73
2021/06/20 10:35:16;;;;;;;15.77;14.38;;;25.90;67.60;;;;;;5092970;28;20032;-73
2021/06/20 10:37:42;;;;;;;16.33;14.82;;;25.90;67.60;;;;;;5092828;28;20529;-73
2021/06/20 10:40:21;;;;;;;16.13;14.55;;;25.90;67.60;;;;;;5092798;28;20580;-73
2021/06/20 10:42:48;;;;;;;16.08;14.68;;;25.90;67.60;;;;;;5092946;28;20115;-73
2021/06/20 10:45:32;;;;;;;15.02;13.63;;;25.90;67.60;;;;;;5092920;28;20072;-73
2021/06/20 10:48:10;;;;;;;15.90;14.30;;;26.00;67.70;;;;;;5092495;28;20024;-72
2021/06/20 10:50:40;;;;;;;15.05;13.68;;;25.90;67.60;;;;;;5092672;28;20054;-73
2021/06/20 10:53:06;;;;;;;15.70;14.30;;;26.00;67.70;;;;;;5092653;28;20069;-73
2021/06/20 10:55:59;;;;;;;15.63;14.13;;;25.90;67.60;;;;;;5091849;28;20024;-73
2021/06/20 10:58:26;;;;;;;14.93;13.50;;;25.90;67.60;;;;;;5091552;28;20032;-74
2021/06/20 11:01:09;;;;;;;15.85;14.35;;;25.90;67.60;;;;;;5092527;28;20020;-73
2021/06/20 11:03:36;;;;;;;15.93;14.48;;;25.90;67.60;;;;;;5092473;28;20030;-73
2021/06/20 11:06:08;;;;;;;16.88;15.27;;;25.90;67.60;;;;;;5092684;28;20077;-73
2021/06/20 11:08:36;;;;;;;16.05;14.63;;;25.90;67.60;;;;;;5092338;28;20031;-73
2021/06/20 11:11:14;;;;;;;14.80;13.50;;;25.90;67.60;;;;;;5092721;28;20173;-73
2021/06/20 11:14:01;;;;;;;15.07;13.68;;;25.90;67.60;;;;;;5092612;28;20035;-73
2021/06/20 11:16:46;;;;;;;16.20;14.52;;;25.90;67.60;;;;;;5092086;28;20448;-74
2021/06/20 11:19:14;;;;;;;15.95;14.50;;;25.90;67.60;;;;;;5092075;28;20483;-73
2021/06/20 11:21:47;;;;;;;16.48;14.88;;;25.90;67.60;;;;;;5090977;28;20032;-75
2021/06/20 11:24:19;;;;;;;16.85;15.32;;;25.90;67.60;;;;;;5092357;28;20028;-74
2021/06/20 11:27:01;;;;;;;16.10;14.55;;;25.90;67.60;;;;;;5092513;28;20056;-73
2021/06/20 11:29:50;;;;;;;16.77;15.32;;;25.90;67.60;;;;;;5091345;28;20024;-74
2021/06/20 11:32:23;;;;;;;16.17;14.70;;;25.90;67.60;;;;;;5092302;28;20081;-73
2021/06/20 11:34:51;;;;;;;15.23;13.93;;;25.90;67.60;;;;;;5092329;28;20551;-74
2021/06/20 11:37:21;;;;;;;15.30;13.90;;;25.90;67.60;;;;;;5092495;28;20024;-73
2021/06/20 11:39:48;;;;;;;16.40;14.70;;;26.00;67.60;;;;;;5092499;28;20020;-74
2021/06/20 11:42:25;;;;;;;15.68;14.20;;;25.90;67.60;;;;;;5092370;28;20487;-74
2021/06/20 11:45:00;;;;;;;13.82;12.50;;;25.90;67.60;;;;;;5094409;28;20396;-74
2021/06/20 11:47:49;;;;;;;15.90;14.40;;;26.00;67.60;;;;;;5093536;28;20032;-73
2021/06/20 11:50:25;;;;;;;17.00;15.43;;;25.90;67.60;;;;;;5092378;28;20051;-73
2021/06/20 11:53:06;;;;;;;16.00;14.48;;;25.90;67.60;;;;;;5095215;28;20027;-73
2021/06/20 11:55:37;;;;;;;16.38;14.88;;;26.00;67.60;;;;;;5095939;28;20024;-72
2021/06/20 11:58:05;;;;;;;15.95;14.43;;;26.00;67.60;;;;;;5096116;28;20081;-73
2021/06/20 12:00:32;;;;;;;15.90;14.48;;;25.90;67.60;;;;;;5095812;28;20383;-74
2021/06/20 12:03:06;;;;;;;16.83;15.23;;;25.90;67.60;;;;;;5095786;28;20101;-74
2021/06/20 12:05:34;;;;;;;14.70;13.30;;;26.00;67.70;;;;;;5095474;28;20028;-69
2021/06/20 12:08:04;;;;;;;16.25;14.73;;;26.00;68.40;;;;;;5095920;28;20028;-75
2021/06/20 12:10:31;;;;;;;14.68;13.27;;;25.90;67.60;;;;;;5095532;28;20533;-74
2021/06/20 12:13:03;;;;;;;15.65;14.15;;;25.90;67.60;;;;;;5095756;28;20081;-74
2021/06/20 12:15:30;;;;;;;16.50;15.00;;;26.00;67.60;;;;;;5095720;28;20039;-74
2021/06/20 12:17:56;;;;;;;16.05;14.55;;;26.00;67.70;;;;;;5095197;28;20066;-74
2021/06/20 12:20:29;;;;;;;17.02;15.43;;;25.90;67.60;;;;;;5095639;28;20051;-74
2021/06/20 12:22:55;;;;;;;16.38;14.88;;;26.00;67.70;;;;;;5095490;28;20030;-75
2021/06/20 12:25:21;;;;;;;15.85;14.35;;;26.00;67.70;;;;;;5095298;28;20123;-73
2021/06/20 12:27:46;;;;;;;15.05;13.73;;;25.90;67.60;;;;;;5095477;28;20039;-74
2021/06/20 12:30:12;;;;;;;15.40;14.00;;;25.90;67.60;;;;;;5095304;28;20436;-74
2021/06/20 12:32:38;;;;;;;16.30;14.85;;;26.00;67.70;;;;;;5095214;28;20028;-73